createdAt,value
2017-09-27T00:02:19.182Z,11.50
2017-09-27T00:04:48.228Z,11.37
2017-09-27T00:07:17.278Z,11.70
2017-09-27T00:09:46.134Z,10.90
2017-09-27T00:12:15.022Z,11.30
2017-09-27T00:14:43.912Z,13.67
2017-09-27T00:17:12.779Z,12.57
2017-09-27T00:19:41.700Z,11.33
2017-09-27T00:22:10.741Z,10.43
2017-09-27T00:24:39.638Z,11.87
2017-09-27T00:27:08.517Z,11.10
2017-09-27T00:29:37.371Z,16.97
2017-09-27T00:32:06.267Z,16.50
2017-09-27T00:34:35.136Z,11.80
2017-09-27T00:37:04.062Z,11.70
2017-09-27T00:39:32.960Z,10.73
2017-09-27T00:42:01.813Z,11.70
2017-09-27T00:44:30.752Z,11.40
2017-09-27T00:46:59.606Z,10.80
2017-09-27T00:49:28.469Z,10.57
2017-09-27T00:51:57.382Z,10.70
2017-09-27T00:54:26.272Z,11.77
2017-09-27T00:56:55.190Z,11.80
2017-09-27T00:59:24.083Z,12.80
2017-09-27T01:01:53.012Z,12.43
2017-09-27T01:04:21.902Z,12.27
2017-09-27T01:06:50.788Z,13.37
2017-09-27T01:09:19.694Z,13.57
2017-09-27T01:11:48.568Z,13.03
2017-09-27T01:14:17.424Z,12.83
2017-09-27T01:16:46.304Z,13.80
2017-09-27T01:19:15.154Z,12.70
2017-09-27T01:21:44.032Z,12.13
2017-09-27T01:24:12.882Z,12.07
2017-09-27T01:26:41.754Z,13.10
2017-09-27T01:29:10.626Z,13.07
2017-09-27T01:31:39.512Z,12.40
2017-09-27T01:34:08.476Z,13.50
2017-09-27T01:36:37.345Z,13.47
2017-09-27T01:39:06.208Z,13.10
2017-09-27T01:41:35.120Z,13.63
2017-09-27T01:44:03.988Z,13.47
2017-09-27T01:46:32.846Z,19.73
2017-09-27T01:49:01.719Z,15.03
2017-09-27T01:51:30.631Z,12.63
2017-09-27T01:53:59.519Z,11.47
2017-09-27T01:56:28.364Z,10.87
2017-09-27T01:58:57.205Z,11.47
2017-09-27T02:01:26.144Z,12.73
2017-09-27T02:03:55.023Z,11.80
2017-09-27T02:06:23.935Z,13.07
2017-09-27T02:08:52.779Z,12.70
2017-09-27T02:11:21.671Z,12.60
2017-09-27T02:13:50.525Z,10.50
2017-09-27T02:16:19.390Z,12.47
2017-09-27T02:18:48.270Z,13.50
2017-09-27T02:21:17.127Z,13.20
2017-09-27T02:23:46.177Z,12.40
2017-09-27T02:26:15.043Z,12.83
2017-09-27T02:28:43.929Z,12.00
2017-09-27T02:31:12.800Z,13.33
2017-09-27T02:33:41.689Z,14.60
2017-09-27T02:36:10.711Z,15.13
2017-09-27T02:38:39.575Z,12.90
2017-09-27T02:41:08.435Z,17.27
2017-09-27T02:43:37.326Z,17.00
2017-09-27T02:46:06.217Z,15.10
2017-09-27T02:48:35.110Z,14.13
2017-09-27T02:51:03.967Z,16.37
2017-09-27T02:53:32.840Z,16.20
2017-09-27T02:56:01.741Z,19.70
2017-09-27T02:58:30.605Z,15.40
2017-09-27T03:00:59.702Z,18.73
2017-09-27T03:03:28.587Z,17.60
2017-09-27T03:05:57.455Z,16.57
2017-09-27T03:08:26.346Z,16.83
2017-09-27T03:10:55.208Z,17.63
2017-09-27T03:13:24.182Z,15.03
2017-09-27T03:15:53.097Z,17.43
2017-09-27T03:18:21.952Z,14.97
2017-09-27T03:20:50.854Z,16.63
2017-09-27T03:23:19.717Z,18.10
2017-09-27T03:25:48.887Z,18.40
2017-09-27T03:28:17.773Z,15.57
2017-09-27T03:30:46.647Z,17.77
2017-09-27T03:33:15.526Z,17.90
2017-09-27T03:35:44.390Z,15.80
2017-09-27T03:38:13.292Z,14.80
2017-09-27T03:40:42.137Z,14.43
2017-09-27T03:43:10.992Z,15.83
2017-09-27T03:45:39.866Z,14.90
2017-09-27T03:48:08.718Z,15.63
2017-09-27T03:50:37.663Z,14.30
2017-09-27T03:53:06.512Z,16.03
2017-09-27T03:55:35.362Z,17.00
2017-09-27T03:58:04.251Z,16.47
2017-09-27T04:00:33.126Z,16.63
2017-09-27T04:03:02.022Z,15.83
2017-09-27T04:05:30.878Z,16.97
2017-09-27T04:07:59.799Z,14.37
2017-09-27T04:10:28.663Z,16.77
2017-09-27T04:12:58.274Z,16.97
2017-09-27T04:15:27.153Z,16.93
2017-09-27T04:17:56.028Z,17.57
2017-09-27T04:20:24.932Z,16.30
2017-09-27T04:22:53.806Z,16.80
2017-09-27T04:25:22.685Z,17.00
2017-09-27T04:27:52.174Z,16.30
2017-09-27T04:30:21.038Z,17.17
2017-09-27T04:32:49.924Z,16.37
2017-09-27T04:35:18.783Z,16.90
2017-09-27T04:37:47.670Z,17.23
2017-09-27T04:40:16.553Z,15.87
2017-09-27T04:42:45.416Z,15.27
2017-09-27T04:45:14.302Z,18.27
2017-09-27T04:47:43.186Z,16.77
2017-09-27T04:50:12.105Z,16.10
2017-09-27T04:52:40.960Z,18.80
2017-09-27T04:55:09.821Z,16.80
2017-09-27T04:57:38.716Z,20.20
2017-09-27T05:00:07.582Z,19.60
2017-09-27T05:02:36.475Z,15.70
2017-09-27T05:05:05.346Z,26.30
2017-09-27T05:07:34.212Z,16.07
2017-09-27T05:10:03.086Z,15.00
2017-09-27T05:12:31.955Z,15.50
2017-09-27T05:15:00.830Z,14.33
2017-09-27T05:17:29.707Z,14.23
2017-09-27T05:19:58.592Z,15.30
2017-09-27T05:22:27.471Z,14.20
2017-09-27T05:24:56.348Z,14.50
2017-09-27T05:27:25.243Z,15.17
2017-09-27T05:29:54.150Z,14.33
2017-09-27T05:32:23.020Z,15.30
2017-09-27T05:34:51.942Z,12.33
2017-09-27T05:37:20.863Z,14.40
2017-09-27T05:39:49.734Z,14.23
2017-09-27T05:42:18.589Z,13.47
2017-09-27T05:44:47.484Z,18.40
2017-09-27T05:47:16.331Z,16.07
2017-09-27T05:49:45.235Z,18.43
2017-09-27T05:52:14.086Z,17.07
2017-09-27T05:54:42.982Z,15.70
2017-09-27T05:57:11.831Z,15.00
2017-09-27T05:59:40.722Z,21.47
2017-09-27T06:02:09.636Z,17.40
2017-09-27T06:04:38.544Z,15.20
2017-09-27T06:07:07.411Z,15.20
2017-09-27T06:09:36.551Z,12.87
2017-09-27T06:12:05.545Z,13.63
2017-09-27T06:14:34.461Z,12.17
2017-09-27T06:17:03.351Z,14.17
2017-09-27T06:19:32.995Z,13.57
2017-09-27T06:22:01.858Z,13.33
2017-09-27T06:24:30.742Z,15.93
2017-09-27T06:26:59.624Z,16.73
2017-09-27T06:29:28.515Z,16.60
2017-09-27T06:31:57.366Z,14.70
2017-09-27T06:34:26.282Z,14.80
2017-09-27T06:36:55.346Z,13.57
2017-09-27T06:39:25.211Z,14.00
2017-09-27T06:41:54.165Z,13.60
2017-09-27T06:44:23.123Z,14.40
2017-09-27T06:46:52.022Z,13.50
2017-09-27T06:49:20.922Z,15.17
2017-09-27T06:51:49.788Z,14.17
2017-09-27T06:54:18.886Z,13.20
2017-09-27T06:56:47.736Z,14.00
2017-09-27T06:59:16.663Z,13.97
2017-09-27T07:01:45.734Z,15.37
2017-09-27T07:04:14.848Z,14.47
2017-09-27T07:06:43.813Z,15.23
2017-09-27T07:09:12.693Z,13.33
2017-09-27T07:11:41.560Z,12.97
2017-09-27T07:14:10.472Z,13.40
2017-09-27T07:16:39.326Z,11.93
2017-09-27T07:19:08.218Z,13.47
2017-09-27T07:21:37.073Z,13.40
2017-09-27T07:24:05.918Z,11.73
2017-09-27T07:26:34.824Z,12.40
2017-09-27T07:29:03.715Z,13.30
2017-09-27T07:31:32.601Z,21.10
2017-09-27T07:34:01.498Z,24.93
2017-09-27T07:36:30.418Z,23.53
2017-09-27T07:38:59.283Z,18.17
2017-09-27T07:41:28.167Z,12.70
2017-09-27T07:43:57.049Z,10.63
2017-09-27T07:46:25.933Z,11.10
2017-09-27T07:48:54.815Z,10.80
2017-09-27T07:51:23.670Z,11.67
2017-09-27T07:53:52.517Z,13.20
2017-09-27T07:56:21.399Z,12.70
2017-09-27T07:58:50.278Z,12.70
2017-09-27T08:01:19.293Z,11.00
2017-09-27T08:03:48.172Z,11.03
2017-09-27T08:06:17.901Z,11.27
2017-09-27T08:08:46.769Z,10.83
2017-09-27T08:11:15.664Z,22.33
2017-09-27T08:13:44.520Z,14.50
2017-09-27T08:16:13.410Z,13.23
2017-09-27T08:18:42.274Z,17.07
2017-09-27T08:21:11.136Z,11.53
2017-09-27T08:23:40.011Z,12.10
2017-09-27T08:26:08.871Z,10.53
2017-09-27T08:28:37.758Z,12.03
2017-09-27T08:31:06.647Z,10.83
2017-09-27T08:33:35.515Z,11.60
2017-09-27T08:36:04.495Z,14.53
2017-09-27T08:38:33.357Z,12.17
2017-09-27T08:41:02.217Z,10.60
2017-09-27T08:43:31.088Z,13.27
2017-09-27T08:45:59.999Z,12.03
2017-09-27T08:48:28.899Z,10.87
2017-09-27T08:50:57.750Z,11.47
2017-09-27T08:53:26.634Z,9.53
2017-09-27T08:55:55.559Z,9.40
2017-09-27T08:58:24.411Z,9.20
2017-09-27T09:00:53.406Z,9.97
2017-09-27T09:03:22.275Z,28.70
2017-09-27T09:05:51.147Z,19.13
2017-09-27T09:08:20.071Z,25.50
2017-09-27T09:10:48.930Z,13.63
2017-09-27T09:13:17.819Z,11.03
2017-09-27T09:15:46.687Z,10.93
2017-09-27T09:18:15.551Z,10.50
2017-09-27T09:20:44.421Z,11.57
2017-09-27T09:23:13.296Z,11.83
2017-09-27T09:25:42.287Z,11.63
2017-09-27T09:28:11.171Z,10.70
2017-09-27T09:30:40.036Z,12.77
2017-09-27T09:33:08.903Z,11.67
2017-09-27T09:35:37.767Z,12.10
2017-09-27T09:38:06.668Z,11.50
2017-09-27T09:40:35.530Z,12.30
2017-09-27T09:43:04.390Z,11.37
2017-09-27T09:45:33.294Z,10.87
2017-09-27T09:48:02.146Z,10.70
2017-09-27T09:50:31.051Z,10.03
2017-09-27T09:52:59.914Z,9.40
2017-09-27T09:55:28.789Z,11.30
2017-09-27T09:57:57.709Z,9.70
2017-09-27T10:00:26.630Z,14.10
2017-09-27T10:02:55.704Z,9.77
2017-09-27T10:05:24.575Z,10.13
2017-09-27T10:07:53.484Z,9.10
2017-09-27T10:10:22.558Z,9.70
2017-09-27T10:12:51.441Z,10.30
2017-09-27T10:15:20.463Z,11.70
2017-09-27T10:17:49.325Z,11.70
2017-09-27T10:20:18.290Z,12.17
2017-09-27T10:22:47.489Z,11.30
2017-09-27T10:25:16.594Z,13.70
2017-09-27T10:27:45.610Z,12.60
2017-09-27T10:30:14.596Z,13.33
2017-09-27T10:32:43.530Z,13.67
2017-09-27T10:35:12.435Z,12.10
2017-09-27T10:37:41.629Z,11.90
2017-09-27T10:40:10.544Z,11.87
2017-09-27T10:42:39.468Z,11.50
2017-09-27T10:45:08.361Z,11.20
2017-09-27T10:47:37.227Z,11.53
2017-09-27T10:50:06.145Z,12.10
2017-09-27T10:52:35.010Z,11.60
2017-09-27T10:55:03.887Z,11.00
2017-09-27T10:57:32.760Z,9.87
2017-09-27T11:00:01.622Z,11.07
2017-09-27T11:02:30.670Z,10.10
2017-09-27T11:04:59.531Z,9.70
2017-09-27T11:07:28.391Z,9.93
2017-09-27T11:09:57.283Z,9.63
2017-09-27T11:12:26.142Z,12.20
2017-09-27T11:14:55.043Z,36.87
2017-09-27T11:17:23.925Z,12.33
2017-09-27T11:19:52.789Z,11.03
2017-09-27T11:22:21.973Z,9.33
2017-09-27T11:24:50.827Z,9.20
2017-09-27T11:27:19.881Z,9.03
2017-09-27T11:29:48.731Z,9.43
2017-09-27T11:32:17.637Z,9.40
2017-09-27T11:34:46.530Z,8.80
2017-09-27T11:37:15.400Z,9.27
2017-09-27T11:39:44.305Z,10.33
2017-09-27T11:42:13.199Z,10.60
2017-09-27T11:44:42.040Z,9.67
2017-09-27T11:47:10.926Z,10.80
2017-09-27T11:49:39.787Z,9.97
2017-09-27T11:52:08.694Z,10.27
2017-09-27T11:54:37.634Z,8.47
2017-09-27T11:57:06.490Z,10.80
2017-09-27T11:59:35.371Z,9.40
2017-09-27T12:02:04.226Z,9.20
2017-09-27T12:04:33.099Z,9.00
2017-09-27T12:07:01.994Z,8.77
2017-09-27T12:09:30.860Z,8.50
2017-09-27T12:11:59.730Z,8.73
2017-09-27T12:14:28.650Z,8.20
2017-09-27T12:16:57.510Z,8.97
2017-09-27T12:19:26.400Z,9.20
2017-09-27T12:21:55.260Z,9.97
2017-09-27T12:24:24.164Z,9.30
2017-09-27T12:26:53.019Z,9.03
2017-09-27T12:29:21.892Z,10.57
2017-09-27T12:31:50.771Z,10.40
2017-09-27T12:34:19.623Z,9.40
2017-09-27T12:36:48.505Z,8.70
2017-09-27T12:39:17.368Z,11.10
2017-09-27T12:41:46.254Z,9.77
2017-09-27T12:44:15.111Z,9.70
2017-09-27T12:46:43.965Z,9.20
2017-09-27T12:49:12.848Z,9.90
2017-09-27T12:51:41.718Z,10.30
2017-09-27T12:54:10.641Z,10.80
2017-09-27T12:56:39.518Z,16.20
2017-09-27T12:59:08.382Z,10.40
2017-09-27T13:01:37.251Z,10.40
2017-09-27T13:04:06.110Z,9.60
2017-09-27T13:06:35.022Z,9.60
2017-09-27T13:09:03.870Z,9.53
2017-09-27T13:11:32.730Z,10.80
2017-09-27T13:14:01.750Z,9.17
2017-09-27T13:16:30.614Z,10.33
2017-09-27T13:18:59.503Z,10.27
2017-09-27T13:21:28.363Z,8.93
2017-09-27T13:23:57.228Z,13.20
2017-09-27T13:26:26.092Z,10.93
2017-09-27T13:28:54.978Z,9.73
2017-09-27T13:31:23.839Z,8.53
2017-09-27T13:33:52.695Z,9.80
2017-09-27T13:36:21.557Z,8.57
2017-09-27T13:38:50.417Z,6.77
2017-09-27T13:41:19.302Z,8.37
2017-09-27T13:43:48.186Z,9.10
2017-09-27T13:46:17.053Z,7.60
2017-09-27T13:48:45.926Z,8.27
2017-09-27T13:51:14.806Z,8.70
2017-09-27T13:53:43.695Z,6.80
2017-09-27T13:56:12.615Z,6.83
2017-09-27T13:58:41.478Z,7.80
2017-09-27T14:01:10.352Z,8.03
2017-09-27T14:03:39.194Z,7.93
2017-09-27T14:06:08.264Z,8.53
2017-09-27T14:08:37.125Z,11.53
2017-09-27T14:11:05.982Z,7.30
2017-09-27T14:13:34.871Z,6.83
2017-09-27T14:16:04.480Z,7.20
2017-09-27T14:18:33.340Z,7.63
2017-09-27T14:21:02.186Z,7.00
2017-09-27T14:23:31.081Z,7.57
2017-09-27T14:25:59.921Z,6.40
2017-09-27T14:28:28.762Z,6.07
2017-09-27T14:30:57.629Z,6.63
2017-09-27T14:33:26.509Z,7.50
2017-09-27T14:35:55.449Z,7.53
2017-09-27T14:38:24.298Z,7.83
2017-09-27T14:40:53.147Z,7.53
2017-09-27T14:43:22.012Z,13.20
2017-09-27T14:45:50.902Z,7.50
2017-09-27T14:48:19.782Z,9.70
2017-09-27T14:50:48.646Z,10.77
2017-09-27T14:53:17.523Z,6.10
2017-09-27T14:55:46.387Z,6.73
2017-09-27T14:58:15.263Z,7.33
2017-09-27T15:00:44.108Z,6.00
2017-09-27T15:03:13.018Z,7.33
2017-09-27T15:05:41.867Z,7.30
2017-09-27T15:08:10.728Z,8.37
2017-09-27T15:10:39.601Z,7.83
2017-09-27T15:13:08.462Z,8.90
2017-09-27T15:15:37.347Z,9.33
2017-09-27T15:18:06.219Z,8.53
2017-09-27T15:20:35.545Z,8.60
2017-09-27T15:23:04.412Z,8.20
2017-09-27T15:25:33.313Z,8.07
2017-09-27T15:28:02.201Z,8.03
2017-09-27T15:30:31.073Z,8.80
2017-09-27T15:32:59.951Z,7.67
2017-09-27T15:35:28.806Z,8.57
2017-09-27T15:37:57.747Z,9.27
2017-09-27T15:40:26.628Z,9.47
2017-09-27T15:42:55.490Z,8.87
2017-09-27T15:45:24.358Z,8.30
2017-09-27T15:47:53.206Z,8.23
2017-09-27T15:50:22.085Z,9.20
2017-09-27T15:52:50.978Z,8.47
2017-09-27T15:55:19.890Z,8.57
2017-09-27T15:57:48.744Z,8.40
2017-09-27T16:00:17.592Z,8.80
2017-09-27T16:02:46.459Z,8.27
2017-09-27T16:05:15.318Z,6.90
2017-09-27T16:07:44.217Z,8.10
2017-09-27T16:10:13.065Z,7.47
2017-09-27T16:12:41.945Z,8.70
2017-09-27T16:15:10.904Z,7.00
2017-09-27T16:17:39.778Z,8.40
2017-09-27T16:20:08.659Z,9.73
2017-09-27T16:22:37.517Z,9.70
2017-09-27T16:25:06.403Z,9.50
2017-09-27T16:27:35.255Z,9.07
2017-09-27T16:30:04.127Z,8.93
2017-09-27T16:32:32.976Z,8.70
2017-09-27T16:35:02.039Z,8.97
2017-09-27T16:37:30.891Z,9.47
2017-09-27T16:39:59.759Z,10.17
2017-09-27T16:42:28.659Z,11.73
2017-09-27T16:44:57.527Z,11.13
2017-09-27T16:47:26.425Z,9.73
2017-09-27T16:49:55.297Z,10.20
2017-09-27T16:52:24.164Z,10.40
2017-09-27T16:54:53.041Z,10.20
2017-09-27T16:57:21.900Z,12.87
2017-09-27T16:59:50.821Z,12.33
2017-09-27T17:02:19.663Z,13.23
2017-09-27T17:04:48.543Z,12.50
2017-09-27T17:07:17.407Z,12.93
2017-09-27T17:09:46.324Z,15.20
2017-09-27T17:12:15.183Z,17.40
2017-09-27T17:14:44.054Z,16.80
2017-09-27T17:17:12.928Z,16.80
2017-09-27T17:19:41.793Z,16.47
2017-09-27T17:22:10.674Z,17.70
2017-09-27T17:24:39.540Z,21.10
2017-09-27T17:27:08.459Z,18.90
2017-09-27T17:29:37.355Z,21.43
2017-09-27T17:32:06.261Z,18.33
2017-09-27T17:34:35.142Z,21.57
2017-09-27T17:37:04.019Z,21.73
2017-09-27T17:39:32.909Z,20.50
2017-09-27T17:42:01.967Z,22.30
2017-09-27T17:44:30.834Z,22.80
2017-09-27T17:46:59.827Z,21.77
2017-09-27T17:49:28.698Z,20.53
2017-09-27T17:51:57.563Z,23.83
2017-09-27T17:54:26.458Z,21.90
2017-09-27T17:56:55.320Z,21.90
2017-09-27T17:59:24.178Z,23.13
2017-09-27T18:01:53.069Z,28.20
2017-09-27T18:04:39.690Z,28.00
2017-09-27T18:07:23.475Z,24.60
2017-09-27T18:09:58.047Z,24.33
2017-09-27T18:12:42.755Z,24.23
2017-09-27T18:15:28.423Z,23.03
2017-09-27T18:18:14.033Z,26.70
2017-09-27T18:20:42.902Z,23.77
2017-09-27T18:23:11.795Z,22.73
2017-09-27T18:25:40.699Z,23.60
2017-09-27T18:28:09.558Z,22.37
2017-09-27T18:30:38.450Z,27.53
2017-09-27T18:33:07.315Z,23.57
2017-09-27T18:35:36.210Z,24.77
2017-09-27T18:38:05.082Z,23.13
2017-09-27T18:40:33.940Z,24.07
2017-09-27T18:43:02.816Z,24.60
2017-09-27T18:45:31.680Z,27.90
2017-09-27T18:48:00.566Z,29.53
2017-09-27T18:50:29.434Z,26.67
2017-09-27T18:52:58.322Z,29.43
2017-09-27T18:55:27.179Z,26.83
2017-09-27T18:57:56.084Z,25.83
2017-09-27T19:00:24.945Z,27.33
2017-09-27T19:02:53.874Z,26.63
2017-09-27T19:05:22.783Z,28.30
2017-09-27T19:07:51.693Z,29.33
2017-09-27T19:10:20.562Z,28.07
2017-09-27T19:12:49.427Z,26.83
2017-09-27T19:15:18.316Z,26.87
2017-09-27T19:17:47.292Z,25.87
2017-09-27T19:20:16.182Z,27.57
2017-09-27T19:22:45.036Z,28.17
2017-09-27T19:25:13.964Z,28.40
2017-09-27T19:27:42.851Z,27.50
2017-09-27T19:30:11.756Z,27.67
2017-09-27T19:32:40.735Z,27.47
2017-09-27T19:35:09.750Z,24.30
2017-09-27T19:37:38.654Z,25.50
2017-09-27T19:40:07.534Z,23.10
2017-09-27T19:42:36.618Z,24.47
2017-09-27T19:45:05.546Z,24.00
2017-09-27T19:47:34.489Z,25.80
2017-09-27T19:50:03.348Z,26.90
2017-09-27T19:52:32.210Z,24.00
2017-09-27T19:55:01.093Z,25.47
2017-09-27T19:57:30.655Z,23.53
2017-09-27T19:59:59.570Z,23.50
2017-09-27T20:02:28.427Z,24.70
2017-09-27T20:04:57.444Z,22.00
2017-09-27T20:07:26.296Z,25.03
2017-09-27T20:09:55.210Z,23.10
2017-09-27T20:12:24.071Z,23.27
2017-09-27T20:14:52.984Z,21.57
2017-09-27T20:17:21.849Z,21.23
2017-09-27T20:19:50.706Z,20.10
2017-09-27T20:22:19.593Z,18.80
2017-09-27T20:24:48.458Z,19.80
2017-09-27T20:27:17.778Z,20.23
2017-09-27T20:29:46.630Z,21.70
2017-09-27T20:32:15.510Z,19.67
2017-09-27T20:34:44.382Z,18.83
2017-09-27T20:37:13.306Z,16.87
2017-09-27T20:39:42.172Z,17.80
2017-09-27T20:42:11.035Z,17.57
2017-09-27T20:44:39.947Z,16.10
2017-09-27T20:47:08.839Z,13.57
2017-09-27T20:49:37.722Z,15.50
2017-09-27T20:52:06.615Z,15.63
2017-09-27T20:54:35.538Z,14.17
2017-09-27T20:57:04.408Z,16.50
2017-09-27T20:59:33.265Z,13.50
2017-09-27T21:02:02.193Z,14.00
2017-09-27T21:04:31.051Z,14.10
2017-09-27T21:06:59.927Z,13.53
2017-09-27T21:09:28.795Z,12.47
2017-09-27T21:11:57.829Z,11.70
2017-09-27T21:14:26.675Z,11.07
2017-09-27T21:16:55.534Z,13.23
2017-09-27T21:19:24.402Z,11.73
2017-09-27T21:21:53.263Z,12.97
2017-09-27T21:24:22.123Z,12.10
2017-09-27T21:26:51.002Z,12.50
2017-09-27T21:29:19.883Z,12.33
2017-09-27T21:31:48.750Z,13.03
2017-09-27T21:34:17.706Z,13.07
2017-09-27T21:36:46.559Z,13.40
2017-09-27T21:39:15.419Z,11.67
2017-09-27T21:41:44.284Z,12.33
2017-09-27T21:44:13.142Z,13.43
2017-09-27T21:46:42.062Z,11.80
2017-09-27T21:49:10.930Z,12.07
2017-09-27T21:51:39.836Z,10.30
2017-09-27T21:54:08.704Z,11.67
2017-09-27T21:56:37.599Z,11.93
2017-09-27T21:59:06.499Z,11.40
2017-09-27T22:01:35.656Z,10.53
2017-09-27T22:04:04.874Z,10.57
2017-09-27T22:06:33.761Z,12.67
2017-09-27T22:09:02.633Z,12.27
2017-09-27T22:11:31.947Z,12.10
2017-09-27T22:14:00.833Z,10.27
2017-09-27T22:16:29.727Z,9.93
2017-09-27T22:18:58.608Z,10.80
2017-09-27T22:21:27.564Z,10.80
2017-09-27T22:23:56.483Z,11.00
2017-09-27T22:26:25.410Z,13.27
2017-09-27T22:28:54.287Z,11.47
2017-09-27T22:31:23.164Z,11.57
2017-09-27T22:33:52.054Z,11.00
2017-09-27T22:36:20.932Z,11.97
2017-09-27T22:38:49.810Z,11.77
2017-09-27T22:41:18.658Z,12.70
2017-09-27T22:43:47.578Z,13.17
2017-09-27T22:46:16.468Z,11.70
2017-09-27T22:48:45.355Z,12.80
2017-09-27T22:51:14.247Z,11.17
2017-09-27T22:53:43.113Z,11.50
2017-09-27T22:56:12.002Z,10.70
2017-09-27T22:58:40.882Z,11.50
2017-09-27T23:01:09.813Z,11.73
2017-09-27T23:03:38.698Z,10.63
2017-09-27T23:06:07.585Z,12.23
2017-09-27T23:08:36.499Z,11.70
2017-09-27T23:11:05.381Z,10.70
2017-09-27T23:13:34.273Z,12.10
2017-09-27T23:16:03.133Z,10.90
2017-09-27T23:18:32.023Z,10.90
2017-09-27T23:21:00.887Z,10.93
2017-09-27T23:23:29.800Z,10.83
2017-09-27T23:25:58.678Z,11.13
2017-09-27T23:28:27.545Z,11.50
2017-09-27T23:30:56.413Z,11.63
2017-09-27T23:33:25.271Z,12.40
2017-09-27T23:35:54.138Z,10.60
2017-09-27T23:38:23.016Z,10.20
2017-09-27T23:40:51.899Z,10.57
2017-09-27T23:43:20.780Z,11.87
2017-09-27T23:45:49.699Z,10.63
2017-09-27T23:48:18.565Z,12.13
2017-09-27T23:50:47.423Z,12.07
2017-09-27T23:53:16.297Z,11.87
2017-09-27T23:55:45.196Z,13.33
2017-09-27T23:58:14.087Z,12.57
